createdAt,value
2019-02-11T00:00:05.300Z,0.40
2019-02-11T00:01:05.406Z,0.40
2019-02-11T00:02:05.266Z,0.40
2019-02-11T00:03:05.253Z,0.50
2019-02-11T00:04:05.247Z,0.30
2019-02-11T00:05:05.295Z,0.50
2019-02-11T00:06:05.243Z,1.30
2019-02-11T00:07:05.218Z,0.30
2019-02-11T00:08:05.199Z,0.80
2019-02-11T00:09:05.185Z,0.40
2019-02-11T00:10:05.172Z,0.50
2019-02-11T00:11:05.154Z,0.40
2019-02-11T00:12:05.177Z,0.40
2019-02-11T00:13:10.335Z,0.60
2019-02-11T00:14:06.174Z,0.50
2019-02-11T00:15:05.120Z,0.50
2019-02-11T00:16:05.111Z,1.60
2019-02-11T00:17:05.121Z,0.60
2019-02-11T00:18:05.134Z,0.50
2019-02-11T00:19:05.104Z,0.60
2019-02-11T00:20:05.069Z,0.60
2019-02-11T00:21:05.051Z,0.80
2019-02-11T00:22:05.049Z,0.80
2019-02-11T00:23:05.060Z,0.90
2019-02-11T00:24:05.068Z,1.60
2019-02-11T00:25:05.014Z,0.70
2019-02-11T00:26:05.020Z,0.70
2019-02-11T00:27:04.992Z,1.30
2019-02-11T00:28:05.055Z,2.20
2019-02-11T00:29:04.967Z,0.80
2019-02-11T00:30:04.953Z,0.90
2019-02-11T00:31:04.966Z,0.80
2019-02-11T00:32:04.940Z,0.60
2019-02-11T00:33:04.955Z,0.60
2019-02-11T00:34:04.966Z,0.80
2019-02-11T00:35:04.921Z,1.00
2019-02-11T00:36:04.909Z,0.80
2019-02-11T00:37:04.871Z,0.90
2019-02-11T00:38:04.964Z,0.90
2019-02-11T00:39:04.905Z,0.90
2019-02-11T00:40:04.848Z,0.80
2019-02-11T00:41:04.881Z,1.20
2019-02-11T00:42:04.880Z,0.60
2019-02-11T00:43:04.847Z,0.60
2019-02-11T00:44:04.800Z,0.80
2019-02-11T00:45:04.828Z,1.00
2019-02-11T00:46:04.784Z,0.60
2019-02-11T00:47:04.772Z,0.70
2019-02-11T00:48:04.758Z,0.50
2019-02-11T00:49:04.755Z,0.80
2019-02-11T00:50:04.769Z,0.60
2019-02-11T00:51:04.744Z,1.50
2019-02-11T00:52:04.735Z,0.60
2019-02-11T00:53:04.700Z,0.50
2019-02-11T00:54:04.701Z,0.50
2019-02-11T00:55:04.692Z,1.20
2019-02-11T00:56:04.736Z,0.60
2019-02-11T00:57:04.663Z,0.60
2019-02-11T00:58:04.657Z,0.60
2019-02-11T00:59:04.643Z,0.60
2019-02-11T01:00:04.623Z,0.60
2019-02-11T01:01:04.653Z,0.60
2019-02-11T01:02:04.636Z,0.60
2019-02-11T01:03:04.608Z,0.60
2019-02-11T01:04:04.597Z,0.70
2019-02-11T01:05:04.583Z,0.60
2019-02-11T01:06:04.616Z,0.70
2019-02-11T01:07:04.593Z,0.60
2019-02-11T01:08:04.570Z,0.50
2019-02-11T01:09:04.556Z,0.70
2019-02-11T01:10:04.529Z,0.70
2019-02-11T01:11:04.511Z,0.50
2019-02-11T01:12:04.523Z,1.00
2019-02-11T01:13:04.497Z,0.50
2019-02-11T01:14:04.505Z,0.40
2019-02-11T01:15:04.470Z,0.40
2019-02-11T01:16:04.496Z,0.40
2019-02-11T01:17:04.496Z,0.70
2019-02-11T01:18:04.437Z,0.30
2019-02-11T01:19:04.439Z,0.40
2019-02-11T01:20:04.432Z,0.30
2019-02-11T01:21:04.404Z,0.50
2019-02-11T01:22:04.429Z,0.30
2019-02-11T01:23:04.384Z,0.30
2019-02-11T01:24:04.375Z,0.40
2019-02-11T01:25:04.376Z,0.40
2019-02-11T01:26:04.349Z,0.30
2019-02-11T01:27:04.456Z,0.40
2019-02-11T01:28:04.332Z,0.40
2019-02-11T01:29:04.339Z,0.30
2019-02-11T01:30:04.315Z,1.00
2019-02-11T01:31:04.327Z,0.50
2019-02-11T01:32:04.323Z,0.30
2019-02-11T01:33:04.278Z,0.20
2019-02-11T01:34:04.318Z,0.30
2019-02-11T01:35:04.258Z,0.30
2019-02-11T01:36:04.247Z,0.20
2019-02-11T01:37:04.264Z,0.30
2019-02-11T01:38:04.240Z,0.30
2019-02-11T01:39:04.249Z,0.30
2019-02-11T01:40:04.367Z,1.40
2019-02-11T01:41:04.219Z,0.20
2019-02-11T01:42:04.323Z,0.30
2019-02-11T01:43:04.168Z,0.20
2019-02-11T01:44:04.165Z,0.30
2019-02-11T01:45:04.196Z,0.20
2019-02-11T01:46:04.159Z,0.30
2019-02-11T01:47:04.237Z,0.20
2019-02-11T01:48:04.138Z,0.30
2019-02-11T01:49:04.180Z,0.30
2019-02-11T01:50:04.109Z,1.50
2019-02-11T01:51:04.230Z,0.20
2019-02-11T01:52:04.815Z,0.40
2019-02-11T01:53:04.067Z,0.20
2019-02-11T01:54:04.058Z,0.20
2019-02-11T01:55:04.091Z,0.20
2019-02-11T01:56:04.050Z,0.30
2019-02-11T01:57:04.043Z,1.70
2019-02-11T01:58:04.010Z,0.30
2019-02-11T01:59:04.008Z,0.20
2019-02-11T02:00:03.992Z,0.20
2019-02-11T02:01:04.156Z,0.20
2019-02-11T02:02:04.010Z,0.20
2019-02-11T02:03:03.964Z,0.30
2019-02-11T02:04:03.949Z,0.30
2019-02-11T02:05:03.938Z,0.30
2019-02-11T02:06:03.925Z,0.30
2019-02-11T02:07:03.957Z,0.20
2019-02-11T02:08:03.928Z,0.20
2019-02-11T02:09:03.907Z,0.30
2019-02-11T02:10:03.896Z,0.30
2019-02-11T02:11:03.874Z,0.40
2019-02-11T02:12:03.886Z,0.30
2019-02-11T02:13:03.858Z,0.20
2019-02-11T02:14:03.894Z,0.40
2019-02-11T02:15:03.837Z,0.30
2019-02-11T02:16:03.831Z,0.40
2019-02-11T02:17:03.834Z,0.40
2019-02-11T02:18:03.800Z,0.40
2019-02-11T02:19:03.797Z,0.30
2019-02-11T02:20:03.790Z,0.30
2019-02-11T02:21:03.798Z,0.20
2019-02-11T02:22:03.805Z,0.30
2019-02-11T02:23:03.746Z,0.30
2019-02-11T02:24:03.735Z,0.30
2019-02-11T02:25:03.728Z,0.40
2019-02-11T02:26:03.728Z,0.30
2019-02-11T02:27:03.715Z,0.20
2019-02-11T02:28:03.747Z,0.20
2019-02-11T02:29:03.709Z,0.30
2019-02-11T02:30:03.683Z,0.40
2019-02-11T02:31:03.672Z,0.20
2019-02-11T02:32:03.685Z,0.30
2019-02-11T02:33:03.684Z,0.40
2019-02-11T02:34:03.640Z,0.30
2019-02-11T02:35:03.625Z,0.30
2019-02-11T02:36:03.613Z,0.30
2019-02-11T02:37:03.607Z,0.30
2019-02-11T02:38:03.596Z,0.40
2019-02-11T02:39:03.618Z,0.30
2019-02-11T02:40:03.618Z,0.20
2019-02-11T02:41:03.569Z,0.30
2019-02-11T02:42:03.558Z,0.20
2019-02-11T02:43:03.576Z,0.30
2019-02-11T02:44:03.559Z,0.30
2019-02-11T02:45:03.524Z,0.20
2019-02-11T02:46:03.517Z,0.40
2019-02-11T02:47:03.494Z,0.20
2019-02-11T02:48:03.588Z,0.30
2019-02-11T02:49:03.483Z,0.60
2019-02-11T02:50:03.506Z,0.40
2019-02-11T02:51:03.464Z,0.50
2019-02-11T02:52:03.445Z,0.40
2019-02-11T02:53:03.444Z,0.30
2019-02-11T02:54:03.449Z,0.40
2019-02-11T02:55:03.858Z,0.30
2019-02-11T02:56:03.422Z,0.30
2019-02-11T02:57:03.437Z,0.30
2019-02-11T02:58:03.378Z,0.40
2019-02-11T02:59:03.372Z,0.20
2019-02-11T03:00:03.394Z,0.30
2019-02-11T03:01:03.382Z,0.40
2019-02-11T03:02:03.336Z,0.30
2019-02-11T03:03:03.327Z,1.00
2019-02-11T03:04:03.319Z,0.30
2019-02-11T03:05:03.332Z,0.20
2019-02-11T03:06:03.309Z,0.30
2019-02-11T03:07:03.289Z,0.90
2019-02-11T03:08:03.283Z,0.30
2019-02-11T03:09:03.259Z,0.30
2019-02-11T03:10:03.274Z,0.30
2019-02-11T03:11:03.246Z,0.30
2019-02-11T03:12:03.239Z,0.60
2019-02-11T03:13:03.230Z,0.30
2019-02-11T03:14:05.693Z,0.30
2019-02-11T03:15:03.230Z,0.40
2019-02-11T03:16:03.190Z,0.20
2019-02-11T03:17:03.185Z,0.30
2019-02-11T03:18:03.169Z,0.50
2019-02-11T03:19:03.161Z,0.20
2019-02-11T03:20:03.181Z,0.40
2019-02-11T03:21:03.135Z,0.30
2019-02-11T03:22:03.130Z,0.30
2019-02-11T03:23:03.118Z,0.30
2019-02-11T03:24:03.140Z,0.40
2019-02-11T03:25:03.134Z,0.30
2019-02-11T03:26:03.101Z,0.40
2019-02-11T03:27:03.075Z,0.30
2019-02-11T03:28:03.058Z,0.40
2019-02-11T03:29:03.067Z,0.30
2019-02-11T03:30:03.079Z,0.40
2019-02-11T03:31:03.033Z,0.50
2019-02-11T03:32:03.020Z,0.40
2019-02-11T03:33:03.007Z,0.40
2019-02-11T03:34:02.994Z,0.40
2019-02-11T03:35:03.009Z,0.40
2019-02-11T03:36:03.006Z,0.40
2019-02-11T03:37:02.963Z,0.40
2019-02-11T03:38:02.956Z,0.40
2019-02-11T03:39:02.945Z,0.60
2019-02-11T03:40:02.924Z,0.70
2019-02-11T03:41:02.939Z,0.50
2019-02-11T03:42:02.905Z,0.80
2019-02-11T03:43:02.901Z,0.60
2019-02-11T03:44:02.889Z,1.30
2019-02-11T03:45:02.879Z,0.80
2019-02-11T03:46:02.901Z,1.80
2019-02-11T03:47:02.851Z,1.70
2019-02-11T03:48:02.841Z,1.30
2019-02-11T03:49:02.858Z,0.80
2019-02-11T03:50:02.829Z,0.70
2019-02-11T03:51:02.809Z,1.30
2019-02-11T03:52:02.820Z,1.00
2019-02-11T03:53:02.808Z,1.00
2019-02-11T03:54:02.778Z,3.30
2019-02-11T03:55:02.777Z,1.30
2019-02-11T03:56:02.763Z,1.70
2019-02-11T03:57:02.751Z,2.10
2019-02-11T03:58:02.773Z,1.70
2019-02-11T03:59:02.728Z,1.70
2019-02-11T04:00:02.720Z,1.70
2019-02-11T04:01:02.713Z,2.80
2019-02-11T04:02:02.694Z,2.50
2019-02-11T04:03:02.716Z,1.60
2019-02-11T04:04:02.679Z,2.70
2019-02-11T04:05:02.670Z,3.10
2019-02-11T04:06:02.649Z,2.60
2019-02-11T04:07:02.686Z,3.60
2019-02-11T04:08:02.664Z,3.20
2019-02-11T04:09:02.630Z,2.90
2019-02-11T04:10:02.612Z,3.10
2019-02-11T04:11:02.597Z,2.30
2019-02-11T04:12:02.587Z,2.10
2019-02-11T04:13:02.576Z,4.60
2019-02-11T04:14:02.588Z,3.30
2019-02-11T04:15:02.561Z,1.80
2019-02-11T04:16:02.551Z,3.40
2019-02-11T04:17:02.538Z,3.60
2019-02-11T04:18:02.564Z,2.80
2019-02-11T04:19:02.514Z,3.10
2019-02-11T04:20:02.510Z,4.00
2019-02-11T04:21:02.506Z,3.50
2019-02-11T04:22:02.487Z,4.60
2019-02-11T04:23:02.473Z,3.70
2019-02-11T04:24:02.488Z,3.20
2019-02-11T04:25:02.471Z,5.70
2019-02-11T04:26:02.442Z,2.60
2019-02-11T04:27:02.435Z,2.30
2019-02-11T04:28:02.422Z,2.20
2019-02-11T04:29:02.434Z,5.00
2019-02-11T04:30:02.426Z,5.30
2019-02-11T04:31:02.387Z,5.00
2019-02-11T04:32:02.378Z,2.50
2019-02-11T04:33:02.365Z,3.40
2019-02-11T04:34:02.352Z,4.30
2019-02-11T04:35:02.379Z,3.90
2019-02-11T04:36:02.341Z,3.80
2019-02-11T04:37:02.337Z,3.50
2019-02-11T04:38:02.314Z,4.40
2019-02-11T04:39:02.307Z,4.30
2019-02-11T04:40:02.331Z,6.90
2019-02-11T04:41:02.286Z,4.10
2019-02-11T04:42:02.276Z,3.60
2019-02-11T04:43:02.273Z,5.30
2019-02-11T04:44:02.248Z,4.40
2019-02-11T04:45:02.240Z,5.60
2019-02-11T04:46:02.255Z,4.00
2019-02-11T04:47:02.221Z,4.20
2019-02-11T04:48:02.225Z,6.20
2019-02-11T04:49:02.328Z,3.20
2019-02-11T04:50:02.204Z,4.20
2019-02-11T04:51:02.195Z,3.30
2019-02-11T04:52:02.163Z,1.60
2019-02-11T04:53:02.172Z,4.30
2019-02-11T04:54:02.148Z,4.40
2019-02-11T04:55:02.151Z,2.60
2019-02-11T04:56:02.162Z,2.80
2019-02-11T04:57:02.118Z,2.30
2019-02-11T04:58:02.106Z,2.50
2019-02-11T04:59:02.104Z,2.60
2019-02-11T05:00:02.086Z,4.70
2019-02-11T05:01:02.073Z,4.20
2019-02-11T05:02:02.098Z,1.90
2019-02-11T05:03:02.050Z,4.90
2019-02-11T05:04:02.037Z,1.70
2019-02-11T05:05:02.090Z,1.80
2019-02-11T05:06:02.026Z,4.20
2019-02-11T05:07:02.041Z,1.80
2019-02-11T05:08:02.034Z,2.90
2019-02-11T05:09:01.989Z,3.90
2019-02-11T05:10:01.983Z,1.30
2019-02-11T05:11:01.969Z,3.40
2019-02-11T05:12:01.991Z,3.40
2019-02-11T05:13:01.955Z,3.00
2019-02-11T05:14:01.943Z,3.60
2019-02-11T05:15:01.927Z,2.10
2019-02-11T05:16:01.912Z,2.10
2019-02-11T05:17:01.903Z,2.10
2019-02-11T05:18:01.929Z,3.00
2019-02-11T05:19:01.895Z,4.60
2019-02-11T05:20:01.886Z,2.60
2019-02-11T05:21:01.876Z,3.60
2019-02-11T05:22:01.854Z,2.10
2019-02-11T05:23:01.840Z,3.10
2019-02-11T05:24:01.851Z,1.10
2019-02-11T05:25:01.830Z,1.10
2019-02-11T05:26:01.810Z,2.30
2019-02-11T05:27:01.798Z,2.00
2019-02-11T05:28:01.784Z,2.20
2019-02-11T05:29:01.802Z,1.90
2019-02-11T05:30:01.814Z,3.30
2019-02-11T05:31:01.769Z,2.80
2019-02-11T05:32:01.751Z,1.60
2019-02-11T05:33:01.751Z,1.10
2019-02-11T05:34:09.845Z,3.20
2019-02-11T05:35:01.712Z,1.40
2019-02-11T05:36:01.703Z,3.70
2019-02-11T05:37:01.698Z,1.40
2019-02-11T05:38:01.688Z,1.80
2019-02-11T05:39:01.674Z,0.90
2019-02-11T05:40:01.704Z,2.00
2019-02-11T05:41:01.659Z,1.20
2019-02-11T05:42:01.648Z,2.40
2019-02-11T05:43:01.636Z,1.80
2019-02-11T05:44:01.626Z,0.80
2019-02-11T05:45:01.608Z,2.80
2019-02-11T05:46:01.692Z,0.80
2019-02-11T05:47:01.587Z,2.40
2019-02-11T05:48:01.576Z,2.60
2019-02-11T05:49:01.573Z,1.70
2019-02-11T05:50:01.593Z,1.90
2019-02-11T05:51:01.548Z,2.80
2019-02-11T05:52:01.543Z,1.30
2019-02-11T05:53:01.523Z,3.20
2019-02-11T05:54:01.516Z,3.60
2019-02-11T05:55:01.508Z,3.80
2019-02-11T05:56:01.523Z,5.60
2019-02-11T05:57:01.483Z,1.10
2019-02-11T05:58:01.471Z,1.10
2019-02-11T05:59:01.461Z,1.90
2019-02-11T06:00:01.463Z,1.50
2019-02-11T06:01:01.472Z,1.40
2019-02-11T06:02:01.435Z,3.90
2019-02-11T06:03:01.426Z,2.40
2019-02-11T06:04:01.414Z,2.20
2019-02-11T06:05:01.441Z,1.20
2019-02-11T06:06:01.413Z,2.40
2019-02-11T06:07:01.403Z,5.70
2019-02-11T06:08:01.364Z,2.10
2019-02-11T06:09:01.365Z,1.10
2019-02-11T06:10:01.355Z,1.30
2019-02-11T06:11:01.344Z,3.90
2019-02-11T06:12:01.352Z,4.70
2019-02-11T06:13:01.317Z,3.10
2019-02-11T06:14:01.309Z,8.00
2019-02-11T06:15:04.201Z,2.40
2019-02-11T06:16:01.327Z,3.50
2019-02-11T06:17:01.287Z,3.30
2019-02-11T06:18:01.275Z,4.50
2019-02-11T06:19:01.247Z,2.80
2019-02-11T06:20:01.241Z,2.70
2019-02-11T06:21:01.235Z,2.70
2019-02-11T06:22:01.252Z,3.90
2019-02-11T06:23:01.215Z,2.00
2019-02-11T06:24:01.204Z,3.60
2019-02-11T06:25:01.182Z,2.50
2019-02-11T06:26:01.173Z,3.20
2019-02-11T06:27:01.169Z,4.30
2019-02-11T06:28:01.176Z,2.80
2019-02-11T06:29:01.141Z,2.70
2019-02-11T06:30:01.142Z,2.90
2019-02-11T06:31:01.122Z,2.60
2019-02-11T06:32:01.109Z,1.50
2019-02-11T06:33:01.127Z,6.00
2019-02-11T06:34:01.098Z,4.50
2019-02-11T06:35:09.923Z,2.30
2019-02-11T06:36:01.068Z,2.10
2019-02-11T06:37:01.076Z,1.60
2019-02-11T06:38:09.113Z,3.70
2019-02-11T06:39:01.070Z,5.40
2019-02-11T06:40:01.024Z,3.10
2019-02-11T06:41:01.020Z,2.40
2019-02-11T06:42:01.012Z,6.10
2019-02-11T06:43:01.007Z,1.80
2019-02-11T06:44:00.985Z,2.30
2019-02-11T06:45:01.020Z,3.20
2019-02-11T06:46:00.957Z,3.40
2019-02-11T06:47:00.953Z,2.40
2019-02-11T06:48:00.942Z,5.00
2019-02-11T06:49:00.954Z,2.50
2019-02-11T06:50:00.960Z,2.50
2019-02-11T06:51:00.914Z,3.60
2019-02-11T06:52:00.897Z,3.00
2019-02-11T06:53:00.884Z,2.50
2019-02-11T06:54:00.873Z,2.00
2019-02-11T06:55:00.895Z,2.20
2019-02-11T06:56:00.857Z,2.40
2019-02-11T06:57:00.841Z,3.10
2019-02-11T06:58:00.830Z,5.20
2019-02-11T06:59:00.826Z,2.90
2019-02-11T07:00:00.884Z,3.00
2019-02-11T07:01:00.804Z,3.50
2019-02-11T07:02:00.802Z,4.90
2019-02-11T07:03:00.780Z,2.80
2019-02-11T07:04:00.777Z,2.90
2019-02-11T07:05:00.774Z,5.40
2019-02-11T07:06:00.742Z,2.80
2019-02-11T07:07:00.732Z,4.40
2019-02-11T07:08:00.725Z,5.80
2019-02-11T07:09:00.720Z,5.90
2019-02-11T07:10:00.739Z,3.20
2019-02-11T07:11:00.707Z,2.80
2019-02-11T07:12:00.679Z,3.40
2019-02-11T07:13:00.696Z,3.20
2019-02-11T07:14:00.662Z,2.10
2019-02-11T07:15:00.722Z,2.10
2019-02-11T07:16:00.664Z,3.10
2019-02-11T07:17:00.627Z,1.10
2019-02-11T07:18:00.622Z,5.00
2019-02-11T07:19:00.687Z,1.30
2019-02-11T07:20:00.598Z,1.30
2019-02-11T07:21:00.610Z,2.90
2019-02-11T07:22:00.578Z,2.30
2019-02-11T07:23:00.586Z,2.90
2019-02-11T07:24:00.563Z,6.90
2019-02-11T07:25:00.555Z,3.10
2019-02-11T07:26:00.551Z,1.90
2019-02-11T07:27:00.552Z,2.30
2019-02-11T07:28:00.516Z,2.90
2019-02-11T07:29:00.505Z,3.60
2019-02-11T07:30:00.488Z,2.30
2019-02-11T07:31:00.476Z,2.80
2019-02-11T07:32:00.498Z,3.80
2019-02-11T07:33:00.470Z,7.40
2019-02-11T07:34:00.471Z,2.50
2019-02-11T07:35:00.454Z,4.10
2019-02-11T07:36:00.431Z,2.20
2019-02-11T07:37:00.451Z,0.90
2019-02-11T07:38:00.439Z,1.80
2019-02-11T07:39:00.391Z,2.10
2019-02-11T07:40:00.380Z,4.90
2019-02-11T07:41:00.380Z,4.60
2019-02-11T07:42:00.367Z,1.00
2019-02-11T07:43:00.346Z,2.20
2019-02-11T07:44:00.363Z,5.70
2019-02-11T07:45:00.333Z,1.30
2019-02-11T07:46:00.321Z,2.30
2019-02-11T07:47:00.308Z,1.90
2019-02-11T07:48:00.326Z,3.60
2019-02-11T07:49:00.288Z,5.60
2019-02-11T07:50:00.287Z,2.10
2019-02-11T07:51:00.283Z,2.60
2019-02-11T07:52:00.251Z,1.30
2019-02-11T07:53:00.288Z,5.00
2019-02-11T07:54:00.235Z,3.70
2019-02-11T07:55:00.230Z,3.60
2019-02-11T07:56:00.211Z,2.50
2019-02-11T07:57:00.243Z,5.10
2019-02-11T07:58:00.269Z,2.10
2019-02-11T07:59:00.241Z,1.40
2019-02-11T08:00:00.277Z,2.40
2019-02-11T08:01:00.186Z,1.70
2019-02-11T08:02:00.182Z,3.00
2019-02-11T08:03:00.187Z,4.70
2019-02-11T08:04:00.159Z,1.60
2019-02-11T08:05:00.278Z,2.20
2019-02-11T08:06:00.145Z,4.40
2019-02-11T08:07:00.132Z,0.80
2019-02-11T08:08:00.120Z,3.20
2019-02-11T08:09:01.002Z,1.60
2019-02-11T08:10:00.098Z,1.60
2019-02-11T08:11:00.087Z,0.80
2019-02-11T08:12:00.429Z,3.10
2019-02-11T08:13:00.050Z,1.90
2019-02-11T08:14:00.028Z,2.30
2019-02-11T08:15:00.005Z,1.20
2019-02-11T08:16:00.012Z,2.10
2019-02-11T08:16:59.983Z,0.70
2019-02-11T08:17:59.979Z,2.00
2019-02-11T08:19:00.111Z,1.40
2019-02-11T08:20:00.299Z,1.80
2019-02-11T08:20:59.994Z,2.40
2019-02-11T08:21:59.925Z,2.00
2019-02-11T08:22:59.914Z,1.60
2019-02-11T08:23:59.903Z,1.10
2019-02-11T08:24:59.907Z,2.20
2019-02-11T08:25:59.888Z,2.80
2019-02-11T08:26:59.910Z,2.70
2019-02-11T08:27:59.889Z,3.30
2019-02-11T08:28:59.860Z,1.20
2019-02-11T08:29:59.844Z,4.10
2019-02-11T08:30:59.836Z,1.80
2019-02-11T08:31:59.869Z,1.90
2019-02-11T08:32:59.813Z,2.00
2019-02-11T08:33:59.805Z,1.40
2019-02-11T08:34:59.786Z,4.20
2019-02-11T08:35:59.775Z,1.90
2019-02-11T08:36:59.783Z,2.00
2019-02-11T08:37:59.781Z,1.90
2019-02-11T08:38:59.754Z,2.90
2019-02-11T08:39:59.741Z,4.00
2019-02-11T08:40:59.721Z,1.80
2019-02-11T08:41:59.713Z,4.90
2019-02-11T08:43:00.091Z,1.90
2019-02-11T08:44:00.423Z,3.70
2019-02-11T08:45:00.010Z,3.00
2019-02-11T08:45:59.955Z,2.20
2019-02-11T08:46:59.817Z,2.40
2019-02-11T08:47:59.839Z,2.20
2019-02-11T08:48:59.656Z,4.90
2019-02-11T08:49:59.739Z,4.90
2019-02-11T08:50:59.799Z,3.20
2019-02-11T08:51:59.657Z,2.30
2019-02-11T08:52:59.989Z,2.50
2019-02-11T08:53:59.656Z,4.80
2019-02-11T08:54:59.650Z,1.80
2019-02-11T08:55:59.586Z,2.70
2019-02-11T08:56:59.597Z,1.70
2019-02-11T08:57:59.581Z,2.40
2019-02-11T08:58:59.556Z,2.50
2019-02-11T08:59:59.595Z,3.00
2019-02-11T09:00:59.547Z,2.80
2019-02-11T09:01:59.549Z,3.00
2019-02-11T09:02:59.496Z,7.70
2019-02-11T09:03:59.536Z,5.80
2019-02-11T09:04:59.555Z,4.20
2019-02-11T09:05:59.471Z,4.00
2019-02-11T09:06:59.488Z,1.70
2019-02-11T09:08:00.836Z,2.40
2019-02-11T09:08:59.465Z,3.70
2019-02-11T09:09:59.501Z,3.10
2019-02-11T09:10:59.424Z,5.30
2019-02-11T09:11:59.453Z,4.90
2019-02-11T09:12:59.393Z,0.90
2019-02-11T09:13:59.441Z,2.90
2019-02-11T09:14:59.446Z,3.40
2019-02-11T09:15:59.390Z,2.60
2019-02-11T09:16:59.380Z,4.50
2019-02-11T09:17:59.361Z,2.60
2019-02-11T09:18:59.350Z,3.80
2019-02-11T09:19:59.347Z,2.30
2019-02-11T09:20:59.330Z,4.80
2019-02-11T09:22:07.106Z,6.10
2019-02-11T09:23:00.323Z,2.50
2019-02-11T09:23:59.274Z,3.30
2019-02-11T09:24:59.300Z,4.50
2019-02-11T09:25:59.322Z,3.40
2019-02-11T09:26:59.239Z,5.60
2019-02-11T09:27:59.252Z,4.90
2019-02-11T09:28:59.219Z,3.00
2019-02-11T09:29:59.279Z,3.20
2019-02-11T09:30:59.244Z,4.10
2019-02-11T09:31:59.245Z,4.30
2019-02-11T09:32:59.183Z,5.50
2019-02-11T09:33:59.186Z,6.30
2019-02-11T09:34:59.167Z,3.90
2019-02-11T09:35:59.145Z,5.00
2019-02-11T09:36:59.177Z,8.20
2019-02-11T09:37:59.114Z,2.30
2019-02-11T09:38:59.103Z,3.30
2019-02-11T09:39:59.091Z,5.70
2019-02-11T09:40:59.096Z,5.10
2019-02-11T09:41:59.077Z,4.80
2019-02-11T09:42:59.113Z,5.50
2019-02-11T09:43:59.078Z,4.60
2019-02-11T09:44:59.034Z,5.80
2019-02-11T09:46:04.022Z,3.90
2019-02-11T09:47:00.032Z,5.00
2019-02-11T09:47:59.066Z,5.70
2019-02-11T09:48:59.174Z,3.90
2019-02-11T09:49:59.005Z,6.00
2019-02-11T09:50:59.025Z,4.20
2019-02-11T09:51:59.010Z,4.60
2019-02-11T09:52:59.054Z,4.00
2019-02-11T09:53:58.968Z,8.10
2019-02-11T09:54:58.968Z,3.30
2019-02-11T09:55:58.933Z,4.20
2019-02-11T09:56:58.914Z,3.40
2019-02-11T09:57:58.912Z,2.70
2019-02-11T09:59:03.453Z,4.30
2019-02-11T09:59:58.887Z,5.60
2019-02-11T10:00:58.939Z,3.80
2019-02-11T10:01:58.926Z,5.60
2019-02-11T10:02:58.857Z,5.20
2019-02-11T10:03:59.356Z,4.20
2019-02-11T10:04:58.826Z,3.30
2019-02-11T10:05:58.844Z,7.60
2019-02-11T10:06:58.829Z,3.30
2019-02-11T10:07:58.817Z,6.30
2019-02-11T10:08:58.807Z,3.90
2019-02-11T10:09:58.882Z,4.80
2019-02-11T10:10:58.806Z,4.90
2019-02-11T10:11:58.812Z,3.70
2019-02-11T10:12:58.781Z,6.50
2019-02-11T10:13:58.846Z,4.20
2019-02-11T10:14:58.836Z,3.60
2019-02-11T10:15:58.768Z,4.40
2019-02-11T10:16:58.745Z,7.20
2019-02-11T10:17:58.751Z,1.70
2019-02-11T10:18:58.684Z,7.40
2019-02-11T10:19:58.698Z,6.10
2019-02-11T10:20:58.661Z,3.30
2019-02-11T10:21:58.657Z,7.80
2019-02-11T10:22:58.634Z,5.20
2019-02-11T10:23:58.626Z,6.60
2019-02-11T10:24:58.646Z,5.40
2019-02-11T10:25:58.618Z,1.50
2019-02-11T10:26:58.597Z,3.80
2019-02-11T10:27:58.584Z,5.30
2019-02-11T10:28:58.575Z,4.20
2019-02-11T10:29:58.589Z,5.60
2019-02-11T10:30:58.548Z,4.60
2019-02-11T10:31:58.566Z,3.60
2019-02-11T10:32:58.533Z,4.30
2019-02-11T10:33:58.527Z,5.70
2019-02-11T10:34:58.534Z,5.50
2019-02-11T10:35:58.564Z,7.40
2019-02-11T10:36:58.517Z,4.80
2019-02-11T10:37:58.502Z,7.20
2019-02-11T10:38:58.505Z,5.30
2019-02-11T10:39:58.461Z,8.70
2019-02-11T10:40:58.483Z,6.60
2019-02-11T10:41:58.456Z,9.40
2019-02-11T10:42:58.473Z,6.30
2019-02-11T10:43:58.409Z,8.10
2019-02-11T10:44:59.458Z,6.20
2019-02-11T10:45:58.406Z,8.80
2019-02-11T10:46:58.442Z,7.10
2019-02-11T10:47:58.388Z,6.50
2019-02-11T10:48:58.378Z,4.20
2019-02-11T10:49:58.376Z,6.20
2019-02-11T10:51:06.578Z,5.20
2019-02-11T10:51:58.326Z,8.40
2019-02-11T10:52:58.311Z,3.40
2019-02-11T10:53:58.303Z,4.00
2019-02-11T10:54:58.295Z,6.00
2019-02-11T10:55:58.310Z,4.80
2019-02-11T10:56:58.296Z,5.20
2019-02-11T10:57:58.267Z,6.80
2019-02-11T10:58:58.249Z,5.20
2019-02-11T10:59:58.232Z,6.10
2019-02-11T11:00:58.226Z,6.60
2019-02-11T11:01:58.244Z,6.30
2019-02-11T11:02:58.210Z,4.70
2019-02-11T11:03:58.200Z,5.60
2019-02-11T11:04:58.185Z,4.30
2019-02-11T11:05:58.177Z,5.50
2019-02-11T11:06:58.186Z,3.70
2019-02-11T11:07:58.146Z,8.10
2019-02-11T11:08:58.144Z,3.70
2019-02-11T11:09:58.134Z,3.50
2019-02-11T11:10:58.119Z,4.10
2019-02-11T11:11:58.106Z,2.10
2019-02-11T11:12:58.140Z,7.00
2019-02-11T11:13:58.092Z,5.90
2019-02-11T11:14:58.081Z,5.50
2019-02-11T11:15:58.069Z,7.10
2019-02-11T11:16:58.059Z,4.00
2019-02-11T11:17:58.101Z,5.30
2019-02-11T11:18:58.074Z,4.30
2019-02-11T11:19:58.018Z,3.60
2019-02-11T11:20:58.029Z,4.30
2019-02-11T11:21:58.000Z,5.20
2019-02-11T11:22:57.996Z,4.30
2019-02-11T11:23:58.008Z,3.40
2019-02-11T11:24:57.970Z,2.80
2019-02-11T11:25:57.955Z,4.20
2019-02-11T11:26:57.956Z,4.00
2019-02-11T11:27:57.940Z,2.80
2019-02-11T11:28:57.962Z,6.80
2019-02-11T11:29:57.917Z,5.80
2019-02-11T11:30:57.907Z,6.20
2019-02-11T11:31:57.894Z,4.30
2019-02-11T11:32:57.884Z,3.10
2019-02-11T11:34:06.307Z,7.20
2019-02-11T11:34:57.869Z,4.90
2019-02-11T11:35:57.856Z,5.20
2019-02-11T11:36:57.841Z,3.80
2019-02-11T11:37:59.057Z,5.70
2019-02-11T11:38:57.831Z,3.80
2019-02-11T11:39:57.838Z,13.40
2019-02-11T11:40:57.810Z,3.80
2019-02-11T11:41:57.789Z,8.30
2019-02-11T11:42:57.866Z,4.50
2019-02-11T11:43:57.952Z,4.50
2019-02-11T11:44:58.147Z,2.20
2019-02-11T11:45:57.763Z,4.20
2019-02-11T11:46:57.745Z,3.40
2019-02-11T11:47:57.770Z,4.50
2019-02-11T11:48:57.735Z,4.10
2019-02-11T11:49:57.881Z,3.80
2019-02-11T11:50:57.757Z,4.40
2019-02-11T11:51:57.709Z,5.00
2019-02-11T11:52:58.636Z,6.90
2019-02-11T11:53:57.670Z,5.80
2019-02-11T11:54:57.692Z,3.60
2019-02-11T11:56:02.149Z,4.30
2019-02-11T11:56:59.449Z,4.70
2019-02-11T11:57:57.687Z,2.90
2019-02-11T11:58:57.653Z,5.10
2019-02-11T11:59:58.122Z,4.10
2019-02-11T12:00:57.616Z,3.30
2019-02-11T12:01:57.758Z,4.60
2019-02-11T12:03:02.969Z,5.30
2019-02-11T12:03:58.560Z,7.90
2019-02-11T12:04:57.659Z,4.00
2019-02-11T12:05:57.702Z,3.40
2019-02-11T12:06:57.535Z,6.10
2019-02-11T12:07:57.569Z,6.00
2019-02-11T12:08:59.173Z,4.90
2019-02-11T12:09:57.559Z,2.70
2019-02-11T12:10:57.545Z,2.10
2019-02-11T12:11:57.582Z,6.10
2019-02-11T12:12:57.571Z,7.20
2019-02-11T12:13:57.628Z,7.00
2019-02-11T12:14:57.554Z,4.90
2019-02-11T12:15:57.661Z,4.70
2019-02-11T12:17:02.375Z,6.90
2019-02-11T12:18:00.079Z,4.20
2019-02-11T12:19:00.046Z,3.40
2019-02-11T12:20:13.087Z,3.10
2019-02-11T12:21:00.253Z,6.60
2019-02-11T12:22:00.339Z,5.50
2019-02-11T12:22:57.402Z,9.10
2019-02-11T12:23:57.439Z,7.50
2019-02-11T12:24:57.429Z,2.60
2019-02-11T12:25:57.460Z,9.10
2019-02-11T12:27:02.793Z,3.90
2019-02-11T12:27:57.358Z,5.30
2019-02-11T12:28:58.069Z,6.10
2019-02-11T12:29:58.043Z,3.10
2019-02-11T12:30:57.322Z,5.90
2019-02-11T12:31:58.181Z,3.60
2019-02-11T12:32:58.060Z,4.30
2019-02-11T12:33:57.417Z,4.80
2019-02-11T12:34:59.514Z,5.90
2019-02-11T12:35:57.261Z,5.20
2019-02-11T12:36:57.308Z,4.10
2019-02-11T12:37:57.306Z,5.30
2019-02-11T12:39:02.435Z,5.70
2019-02-11T12:39:57.468Z,4.40
2019-02-11T12:40:57.232Z,7.00
2019-02-11T12:41:58.155Z,6.50
2019-02-11T12:42:57.190Z,6.60
2019-02-11T12:43:58.585Z,5.10
2019-02-11T12:44:57.238Z,6.20
2019-02-11T12:45:58.074Z,6.20
2019-02-11T12:47:13.927Z,4.00
2019-02-11T12:47:58.419Z,3.60
2019-02-11T12:49:01.319Z,2.20
2019-02-11T12:49:58.173Z,6.60
2019-02-11T12:50:58.442Z,5.80
2019-02-11T12:51:57.090Z,1.90
2019-02-11T12:52:57.166Z,5.70
2019-02-11T12:53:58.554Z,5.90
2019-02-11T12:54:57.098Z,3.80
2019-02-11T12:56:01.870Z,3.70
2019-02-11T12:56:58.115Z,4.50
2019-02-11T12:57:57.060Z,5.60
2019-02-11T12:58:57.049Z,3.50
2019-02-11T12:59:57.018Z,2.90
2019-02-11T13:00:57.136Z,4.90
2019-02-11T13:01:56.999Z,3.80
2019-02-11T13:02:57.724Z,4.60
2019-02-11T13:03:56.984Z,3.50
2019-02-11T13:04:57.559Z,6.60
2019-02-11T13:05:56.969Z,3.80
2019-02-11T13:06:56.997Z,3.30
2019-02-11T13:07:57.106Z,2.30
2019-02-11T13:08:56.945Z,2.30
2019-02-11T13:09:56.937Z,3.80
2019-02-11T13:10:57.845Z,3.90
2019-02-11T13:11:56.909Z,3.30
2019-02-11T13:12:56.874Z,3.00
2019-02-11T13:13:56.915Z,7.40
2019-02-11T13:14:56.944Z,5.50
2019-02-11T13:16:02.191Z,2.60
2019-02-11T13:16:57.890Z,6.00
2019-02-11T13:17:56.928Z,3.20